Time;durP1;ratioP1;P1;durP2;ratioP2;P2;SDS_P1;SDS_P2;PMS_P1;PMS_P2;Temp;Humidity;BMP_temperature;BMP_pressure;BME280_temperature;BME280_humidity;BME280_pressure;Samples;Min_cycle;Max_cycle;Signal;HPM_P1;HPM_P2
2024/01/01 00:00:59;;;;;;;11.10;6.77;;;;;18.00;98910.00;;;;2082817;28;20214;-54
2024/01/01 00:01:59;;;;;;;9.30;7.57;;;;;18.00;98920.00;;;;2076080;28;20358;-52
2024/01/01 00:02:59;;;;;;;8.57;7.20;;;;;18.10;98915.00;;;;2084730;28;20226;-52
2024/01/01 00:04:00;;;;;;;10.37;7.67;;;;;18.10;98912.00;;;;2085130;28;21170;-52
2024/01/01 00:05:00;;;;;;;9.23;7.13;;;;;18.10;98908.00;;;;2088190;28;20826;-51
2024/01/01 00:06:02;;;;;;;8.60;6.73;;;;;18.10;98908.00;;;;2087434;28;20698;-51
2024/01/01 00:07:02;;;;;;;9.45;7.57;;;;;18.10;98900.00;;;;2078064;28;20222;-52
2024/01/01 00:08:02;;;;;;;10.83;7.17;;;;;18.10;98917.00;;;;2089377;28;20895;-52
2024/01/01 00:09:03;;;;;;;10.33;7.17;;;;;18.10;98900.00;;;;2086828;28;20222;-52
2024/01/01 00:10:05;;;;;;;9.02;7.80;;;;;18.10;98910.00;;;;2088193;28;20747;-52
2024/01/01 00:11:05;;;;;;;9.93;8.05;;;;;18.10;98918.00;;;;2079949;28;20232;-51
2024/01/01 00:12:08;;;;;;;9.10;7.27;;;;;18.10;98921.00;;;;2077276;28;20273;-52
2024/01/01 00:13:08;;;;;;;8.32;7.22;;;;;18.00;98913.00;;;;2086164;28;20348;-52
2024/01/01 00:14:08;;;;;;;9.97;7.40;;;;;18.10;98919.00;;;;2096030;28;20910;-52
2024/01/01 00:15:09;;;;;;;9.10;8.20;;;;;18.10;98905.00;;;;2087347;28;20223;-51
2024/01/01 00:16:09;;;;;;;8.80;7.57;;;;;18.00;98908.00;;;;2087280;28;20696;-52
2024/01/01 00:17:10;;;;;;;11.17;8.07;;;;;18.10;98936.00;;;;2080435;28;20226;-55
2024/01/01 00:18:10;;;;;;;9.90;7.40;;;;;18.10;98919.00;;;;2080387;28;20247;-53
2024/01/01 00:19:12;;;;;;;8.47;7.67;;;;;18.10;98918.00;;;;2087856;28;20766;-51
2024/01/01 00:20:13;;;;;;;8.43;7.15;;;;;18.10;98909.00;;;;2075755;28;20283;-52
2024/01/01 00:21:14;;;;;;;9.60;7.77;;;;;18.00;98918.00;;;;2084990;28;20281;-52
2024/01/01 00:22:15;;;;;;;9.98;8.10;;;;;18.00;98909.00;;;;2077089;28;20237;-52
2024/01/01 00:23:16;;;;;;;8.67;7.50;;;;;18.00;98914.00;;;;2089033;28;20226;-52
2024/01/01 00:24:17;;;;;;;10.07;8.33;;;;;18.10;98920.00;;;;2093229;28;20214;-53
2024/01/01 00:25:17;;;;;;;7.63;6.77;;;;;18.10;98911.00;;;;2077441;28;20540;-52
2024/01/01 00:26:18;;;;;;;10.13;8.50;;;;;18.10;98907.00;;;;2086146;28;20215;-52
2024/01/01 00:27:19;;;;;;;8.60;7.70;;;;;18.00;98929.00;;;;2073383;28;20215;-56
2024/01/01 00:28:19;;;;;;;10.30;8.15;;;;;18.00;98919.00;;;;2095533;28;20217;-52
2024/01/01 00:29:21;;;;;;;8.77;7.80;;;;;18.00;98911.00;;;;2091875;28;20238;-51
2024/01/01 00:30:21;;;;;;;8.55;7.57;;;;;18.00;98911.00;;;;2093431;28;20222;-52
2024/01/01 00:31:21;;;;;;;9.30;7.50;;;;;18.00;98910.00;;;;2086161;28;20743;-51
2024/01/01 00:32:22;;;;;;;9.40;8.47;;;;;18.00;98924.00;;;;2072654;28;20277;-52
2024/01/01 00:33:22;;;;;;;8.40;7.07;;;;;18.00;98910.00;;;;2087783;28;20933;-53
2024/01/01 00:34:22;;;;;;;9.30;7.93;;;;;18.00;98969.00;;;;2087609;28;20706;-51
2024/01/01 00:35:25;;;;;;;8.07;7.30;;;;;18.00;98909.00;;;;2094608;28;20705;-54
2024/01/01 00:36:25;;;;;;;8.43;7.63;;;;;18.00;98916.00;;;;2085622;28;20216;-52
2024/01/01 00:37:25;;;;;;;11.00;8.60;;;;;18.00;98909.00;;;;2077657;28;20216;-52
2024/01/01 00:38:26;;;;;;;9.87;8.33;;;;;18.00;98913.00;;;;2093799;28;20219;-52
2024/01/01 00:39:26;;;;;;;10.00;8.00;;;;;18.00;98914.00;;;;2084866;28;20211;-51
2024/01/01 00:40:27;;;;;;;10.83;7.70;;;;;18.00;98910.00;;;;2088276;28;20769;-50
2024/01/01 00:41:27;;;;;;;8.23;7.37;;;;;18.10;98923.00;;;;2084815;28;20687;-54
2024/01/01 00:42:27;;;;;;;9.07;7.87;;;;;18.00;98920.00;;;;2075570;28;20227;-52
2024/01/01 00:43:28;;;;;;;8.87;7.87;;;;;18.00;98916.00;;;;2087074;28;20211;-52
2024/01/01 00:44:28;;;;;;;9.30;8.40;;;;;18.00;98904.00;;;;2087278;28;20597;-51
2024/01/01 00:45:29;;;;;;;8.80;7.90;;;;;18.00;98919.00;;;;2088077;28;20711;-52
2024/01/01 00:46:29;;;;;;;7.97;6.50;;;;;18.00;98917.00;;;;2087512;28;20586;-55
2024/01/01 00:47:30;;;;;;;8.83;7.93;;;;;18.00;98926.00;;;;2073244;28;20684;-51
2024/01/01 00:48:30;;;;;;;8.27;7.47;;;;;18.00;98915.00;;;;2086292;28;20244;-52
2024/01/01 00:49:30;;;;;;;9.73;8.70;;;;;18.00;98910.00;;;;2087693;28;20206;-51
2024/01/01 00:50:32;;;;;;;9.03;7.70;;;;;18.00;98907.00;;;;2084797;28;20214;-52
2024/01/01 00:51:32;;;;;;;8.88;7.93;;;;;18.00;98905.00;;;;2087714;28;20234;-52
2024/01/01 00:52:33;;;;;;;9.10;7.53;;;;;18.00;98910.00;;;;2078313;28;20242;-51
2024/01/01 00:53:34;;;;;;;8.83;7.80;;;;;18.00;98908.00;;;;2086264;28;20212;-55
2024/01/01 00:54:34;;;;;;;10.23;7.90;;;;;18.00;98913.00;;;;2087844;28;20539;-54
2024/01/01 00:55:35;;;;;;;10.97;8.00;;;;;18.00;98895.00;;;;2079961;28;20214;-52
2024/01/01 00:56:35;;;;;;;7.97;6.80;;;;;18.00;98911.00;;;;2082986;28;20234;-50
2024/01/01 00:57:35;;;;;;;10.33;7.63;;;;;18.00;98909.00;;;;2075288;28;20238;-52
2024/01/01 00:58:36;;;;;;;11.67;8.10;;;;;18.00;98909.00;;;;2082639;28;20234;-56
2024/01/01 00:59:37;;;;;;;8.70;7.10;;;;;18.00;98918.00;;;;2084516;28;20223;-53
2024/01/01 01:00:40;;;;;;;10.23;7.70;;;;;18.00;98905.00;;;;2084109;28;20225;-51
2024/01/01 01:01:41;;;;;;;9.35;7.75;;;;;18.00;98922.00;;;;2075227;28;20249;-52
2024/01/01 01:02:41;;;;;;;9.60;7.95;;;;;18.00;98917.00;;;;2084877;28;20231;-52
2024/01/01 01:03:42;;;;;;;9.67;7.80;;;;;18.00;98750.00;;;;2087011;28;20700;-51
2024/01/01 01:04:45;;;;;;;8.63;7.73;;;;;18.00;98912.00;;;;2084454;28;20215;-55
2024/01/01 01:05:46;;;;;;;9.50;7.10;;;;;18.00;98920.00;;;;2084247;28;20296;-52
2024/01/01 01:06:47;;;;;;;8.07;7.23;;;;;18.00;98909.00;;;;2074273;28;20246;-52
2024/01/01 01:07:47;;;;;;;8.40;7.17;;;;;18.00;98907.00;;;;2086742;28;20222;-52
2024/01/01 01:08:47;;;;;;;9.37;7.47;;;;;18.00;98911.00;;;;2087014;28;20489;-52
2024/01/01 01:09:48;;;;;;;10.57;8.43;;;;;18.00;98905.00;;;;2086596;28;20302;-55
2024/01/01 01:10:49;;;;;;;8.07;6.70;;;;;18.00;98911.00;;;;2085492;28;20225;-52
2024/01/01 01:11:49;;;;;;;8.60;7.68;;;;;18.00;98903.00;;;;2082145;28;20228;-52
2024/01/01 01:12:53;;;;;;;8.03;7.20;;;;;18.00;98909.00;;;;2086358;28;20249;-51
2024/01/01 01:13:56;;;;;;;8.32;7.53;;;;;18.00;98894.00;;;;2090560;28;20213;-52
2024/01/01 01:14:59;;;;;;;8.63;7.72;;;;;17.70;98907.00;;;;2077868;28;20291;-53
2024/01/01 01:15:59;;;;;;;8.43;6.85;;;;;18.00;98902.00;;;;2075046;28;20643;-52
2024/01/01 01:16:59;;;;;;;9.63;7.87;;;;;18.00;98900.00;;;;2069612;28;20250;-53
2024/01/01 01:18:00;;;;;;;9.03;8.10;;;;;18.00;98902.00;;;;2086476;28;20215;-52
2024/01/01 01:19:00;;;;;;;10.53;7.70;;;;;18.00;98913.00;;;;2085735;28;20212;-52
2024/01/01 01:20:02;;;;;;;8.30;7.27;;;;;18.00;98908.00;;;;2085804;28;20243;-52
2024/01/01 01:21:02;;;;;;;7.68;6.68;;;;;18.00;98908.00;;;;2084554;28;20217;-52
2024/01/01 01:22:02;;;;;;;8.43;6.90;;;;;18.00;98902.00;;;;2075513;28;20232;-52
2024/01/01 01:23:03;;;;;;;8.33;7.00;;;;;18.00;98900.00;;;;2092467;28;20238;-52
2024/01/01 01:24:04;;;;;;;9.07;7.47;;;;;18.00;98902.00;;;;2087124;28;20252;-52
2024/01/01 01:25:04;;;;;;;8.47;7.50;;;;;18.00;98902.00;;;;2093138;28;20238;-52
2024/01/01 01:26:04;;;;;;;9.83;7.03;;;;;18.00;98893.00;;;;2087040;28;20224;-52
2024/01/01 01:27:05;;;;;;;8.17;6.50;;;;;18.00;98907.00;;;;2076657;28;20242;-52
2024/01/01 01:28:05;;;;;;;7.90;7.00;;;;;18.00;98896.00;;;;2093404;28;20242;-52
2024/01/01 01:29:05;;;;;;;8.37;6.87;;;;;18.00;98903.00;;;;2084882;28;20216;-52
2024/01/01 01:30:06;;;;;;;9.23;7.37;;;;;18.00;98887.00;;;;2086284;28;20702;-52
2024/01/01 01:31:06;;;;;;;9.20;7.57;;;;;18.00;98880.00;;;;2079357;28;20241;-52
2024/01/01 01:32:09;;;;;;;8.30;7.13;;;;;18.00;98890.00;;;;2072624;28;20899;-52
2024/01/01 01:33:09;;;;;;;8.23;7.07;;;;;18.00;98893.00;;;;2085913;28;20248;-52
2024/01/01 01:34:09;;;;;;;7.60;6.57;;;;;18.00;98894.00;;;;2083982;28;20222;-52
2024/01/01 01:35:10;;;;;;;8.50;6.40;;;;;18.00;98883.00;;;;2093909;28;20235;-52
2024/01/01 01:36:10;;;;;;;8.60;6.93;;;;;18.00;98896.00;;;;2084912;28;21883;-52
2024/01/01 01:37:11;;;;;;;7.60;6.60;;;;;18.00;98887.00;;;;2076045;28;20486;-52
2024/01/01 01:38:11;;;;;;;7.57;6.77;;;;;18.00;98885.00;;;;2083481;28;20224;-52
2024/01/01 01:39:11;;;;;;;8.20;6.57;;;;;18.00;98881.00;;;;2086528;28;20224;-52
2024/01/01 01:40:12;;;;;;;8.50;6.87;;;;;18.00;98902.00;;;;2085118;28;20266;-52
2024/01/01 01:41:12;;;;;;;8.77;6.23;;;;;18.10;98890.00;;;;2091267;28;20306;-52
2024/01/01 01:42:12;;;;;;;7.43;6.30;;;;;18.10;98892.00;;;;2075484;28;20659;-52
2024/01/01 01:43:20;;;;;;;7.93;6.57;;;;;18.00;98885.00;;;;2083499;28;21032;-52
2024/01/01 01:44:21;;;;;;;7.82;6.45;;;;;18.00;98884.00;;;;2086407;28;20223;-52
2024/01/01 01:45:22;;;;;;;8.03;6.67;;;;;18.00;98890.00;;;;2089724;28;20226;-52
2024/01/01 01:46:23;;;;;;;7.70;6.45;;;;;18.00;98894.00;;;;2093615;28;20207;-53
2024/01/01 01:47:23;;;;;;;7.93;6.10;;;;;18.00;98883.00;;;;2065020;28;20219;-53
2024/01/01 01:48:23;;;;;;;7.60;6.80;;;;;18.00;98890.00;;;;2077014;28;20734;-53
2024/01/01 01:49:24;;;;;;;8.20;6.17;;;;;18.00;98885.00;;;;2085714;28;20215;-53
2024/01/01 01:50:24;;;;;;;6.90;6.20;;;;;18.00;98884.00;;;;2084811;28;20267;-52
2024/01/01 01:51:25;;;;;;;7.67;6.40;;;;;18.00;98877.00;;;;2091769;28;20223;-52
2024/01/01 01:52:25;;;;;;;8.97;7.10;;;;;18.00;98872.00;;;;2066119;28;20213;-52
2024/01/01 01:53:26;;;;;;;7.60;6.63;;;;;18.00;98884.00;;;;2069055;28;20588;-52
2024/01/01 01:54:26;;;;;;;7.47;5.83;;;;;18.00;98880.00;;;;2066196;28;20217;-53
2024/01/01 01:55:26;;;;;;;8.20;6.70;;;;;18.00;98878.00;;;;2085779;28;20227;-53
2024/01/01 01:56:27;;;;;;;7.73;5.97;;;;;18.00;98873.00;;;;2085697;28;20314;-52
2024/01/01 01:57:27;;;;;;;7.83;6.60;;;;;18.00;98874.00;;;;2076389;28;20710;-52
2024/01/01 01:58:28;;;;;;;10.33;6.57;;;;;18.00;98867.00;;;;2094295;28;20738;-52
2024/01/01 01:59:28;;;;;;;9.40;6.73;;;;;18.00;98869.00;;;;2086575;28;20215;-53
2024/01/01 02:00:29;;;;;;;7.47;5.83;;;;;17.90;98871.00;;;;2086426;28;20294;-52
2024/01/01 02:01:29;;;;;;;6.57;5.70;;;;;18.00;98865.00;;;;2083981;28;20210;-51
2024/01/01 02:02:29;;;;;;;9.83;6.60;;;;;18.00;98872.00;;;;2075461;28;20258;-52
2024/01/01 02:03:30;;;;;;;7.13;6.20;;;;;18.00;98873.00;;;;2068216;28;20209;-52
2024/01/01 02:04:30;;;;;;;8.03;5.70;;;;;18.00;98873.00;;;;2074908;28;20207;-52
2024/01/01 02:05:31;;;;;;;8.00;6.00;;;;;18.00;98867.00;;;;2079796;28;20243;-52
2024/01/01 02:06:31;;;;;;;8.97;6.80;;;;;18.00;98871.00;;;;2084369;28;20223;-52
2024/01/01 02:07:32;;;;;;;8.90;6.90;;;;;18.00;98926.00;;;;2073990;28;20246;-52
2024/01/01 02:08:32;;;;;;;8.50;6.60;;;;;18.00;98869.00;;;;2082438;28;20231;-52
2024/01/01 02:09:32;;;;;;;6.07;5.33;;;;;18.00;98859.00;;;;2085492;28;20617;-52
2024/01/01 02:10:33;;;;;;;7.80;6.13;;;;;18.00;98864.00;;;;2084702;28;20350;-52
2024/01/01 02:11:33;;;;;;;9.57;6.77;;;;;18.00;98865.00;;;;2083195;28;20212;-52
2024/01/01 02:12:34;;;;;;;6.80;5.37;;;;;18.00;98869.00;;;;2078126;28;20223;-52
2024/01/01 02:13:34;;;;;;;6.73;5.40;;;;;18.00;98874.00;;;;2087837;28;20220;-52
2024/01/01 02:14:34;;;;;;;5.80;5.20;;;;;18.00;98871.00;;;;2084776;28;20741;-52
2024/01/01 02:15:35;;;;;;;8.30;6.10;;;;;18.00;98878.00;;;;2085028;28;20207;-52
2024/01/01 02:16:35;;;;;;;8.80;6.37;;;;;18.00;98868.00;;;;2088242;28;20214;-52
2024/01/01 02:17:35;;;;;;;7.80;5.77;;;;;18.00;98880.00;;;;2084416;28;20217;-52
2024/01/01 02:18:36;;;;;;;6.10;5.20;;;;;18.00;98888.00;;;;2083741;28;20307;-52
2024/01/01 02:19:36;;;;;;;6.53;5.70;;;;;18.00;98892.00;;;;2086102;28;20221;-52
2024/01/01 02:20:36;;;;;;;6.83;5.63;;;;;18.00;98898.00;;;;2083838;28;20203;-52
2024/01/01 02:21:37;;;;;;;7.30;6.43;;;;;18.00;98895.00;;;;2086206;28;20201;-52
2024/01/01 02:22:38;;;;;;;7.27;5.93;;;;;18.00;98888.00;;;;2075050;28;20216;-52
2024/01/01 02:23:38;;;;;;;7.03;5.15;;;;;18.00;98900.00;;;;2078576;28;20471;-52
2024/01/01 02:24:38;;;;;;;7.70;6.10;;;;;18.00;98911.00;;;;2085961;28;20253;-52
2024/01/01 02:25:39;;;;;;;5.73;5.13;;;;;18.00;98910.00;;;;2085160;28;20247;-52
2024/01/01 02:26:39;;;;;;;6.33;5.50;;;;;18.00;98917.00;;;;2084460;28;20212;-57
2024/01/01 02:27:39;;;;;;;7.77;5.50;;;;;18.00;98916.00;;;;2077897;28;20207;-52
2024/01/01 02:28:40;;;;;;;5.77;4.80;;;;;18.00;98930.00;;;;2084652;28;20208;-52
2024/01/01 02:29:40;;;;;;;7.10;5.43;;;;;18.00;98924.00;;;;2085758;28;20219;-52
2024/01/01 02:30:40;;;;;;;8.70;5.30;;;;;18.00;98933.00;;;;2086169;28;20243;-52
2024/01/01 02:31:41;;;;;;;5.93;5.00;;;;;18.00;98929.00;;;;2083053;28;20215;-52
2024/01/01 02:32:41;;;;;;;9.13;4.40;;;;;18.00;98942.00;;;;2085243;28;20207;-52
2024/01/01 02:33:41;;;;;;;8.10;5.27;;;;;18.00;98947.00;;;;2086007;28;20208;-52
2024/01/01 02:34:42;;;;;;;6.13;5.33;;;;;18.00;98951.00;;;;2083491;28;20208;-51
2024/01/01 02:35:43;;;;;;;5.87;5.10;;;;;18.00;98957.00;;;;2080178;28;20219;-52
2024/01/01 02:36:43;;;;;;;5.90;4.70;;;;;18.00;98953.00;;;;2078710;28;20228;-52
2024/01/01 02:37:43;;;;;;;7.40;5.30;;;;;18.00;98964.00;;;;2084927;28;20207;-52
2024/01/01 02:38:44;;;;;;;7.17;5.10;;;;;18.00;98950.00;;;;2085980;28;20240;-52
2024/01/01 02:39:44;;;;;;;6.87;5.23;;;;;18.00;98963.00;;;;2084030;28;20211;-51
2024/01/01 02:40:45;;;;;;;5.70;4.47;;;;;18.00;98981.00;;;;2084839;28;20211;-52
2024/01/01 02:41:45;;;;;;;7.43;5.00;;;;;18.00;98968.00;;;;2074305;28;20227;-52
2024/01/01 02:42:45;;;;;;;5.47;4.57;;;;;18.00;98959.00;;;;2079768;28;20255;-52
2024/01/01 02:43:45;;;;;;;6.97;5.20;;;;;18.00;98972.00;;;;2085320;28;20214;-52
2024/01/01 02:44:46;;;;;;;6.03;5.30;;;;;18.00;98964.00;;;;2084615;28;25411;-52
2024/01/01 02:45:46;;;;;;;5.77;4.53;;;;;18.00;98979.00;;;;2085659;28;20232;-52
2024/01/01 02:46:47;;;;;;;5.77;4.50;;;;;18.00;98981.00;;;;2074842;28;20985;-51
2024/01/01 02:47:48;;;;;;;6.05;4.60;;;;;18.00;98977.00;;;;2089208;28;20225;-52
2024/01/01 02:48:48;;;;;;;6.50;4.87;;;;;18.00;98976.00;;;;2089928;28;20302;-51
2024/01/01 02:49:48;;;;;;;5.33;4.47;;;;;18.00;98970.00;;;;2085889;28;20257;-52
2024/01/01 02:50:49;;;;;;;5.47;4.30;;;;;18.00;98969.00;;;;2084463;28;20222;-52
2024/01/01 02:51:49;;;;;;;5.77;5.13;;;;;18.00;98965.00;;;;2074613;28;20227;-52
2024/01/01 02:52:49;;;;;;;5.30;4.30;;;;;18.00;98962.00;;;;2086006;28;20214;-52
2024/01/01 02:53:50;;;;;;;6.33;4.77;;;;;18.00;98956.00;;;;2079417;28;20221;-51
2024/01/01 02:54:50;;;;;;;6.67;4.10;;;;;18.00;98952.00;;;;2080503;28;20238;-51
2024/01/01 02:55:50;;;;;;;7.07;4.60;;;;;18.00;98956.00;;;;2085860;28;20230;-51
2024/01/01 02:56:51;;;;;;;4.77;4.20;;;;;18.00;98963.00;;;;2075605;28;20239;-52
2024/01/01 02:57:51;;;;;;;5.20;4.20;;;;;18.00;98946.00;;;;2086023;28;20238;-52
2024/01/01 02:58:52;;;;;;;4.80;4.03;;;;;17.60;98955.00;;;;2084411;28;20234;-51
2024/01/01 02:59:52;;;;;;;5.37;4.50;;;;;18.00;98947.00;;;;2085497;28;20242;-52
2024/01/01 03:00:52;;;;;;;5.47;4.80;;;;;18.00;98959.00;;;;2082390;28;20231;-52
2024/01/01 03:01:53;;;;;;;7.27;4.57;;;;;18.00;98958.00;;;;2071319;28;21084;-52
2024/01/01 03:02:53;;;;;;;5.50;4.90;;;;;18.00;98952.00;;;;2085776;28;20251;-52
2024/01/01 03:03:54;;;;;;;4.97;4.13;;;;;18.00;98966.00;;;;2084643;28;20293;-52
2024/01/01 03:04:54;;;;;;;5.00;3.90;;;;;18.00;98958.00;;;;2085782;28;20223;-52
2024/01/01 03:05:54;;;;;;;6.30;4.70;;;;;17.90;98950.00;;;;2085087;28;20466;-52
2024/01/01 03:06:55;;;;;;;5.90;3.73;;;;;18.00;98954.00;;;;2074878;28;20239;-52
2024/01/01 03:07:55;;;;;;;4.90;4.40;;;;;17.90;98952.00;;;;2085080;28;20218;-52
2024/01/01 03:08:55;;;;;;;6.73;4.60;;;;;18.00;98959.00;;;;2085902;28;20241;-52
2024/01/01 03:09:56;;;;;;;4.97;3.90;;;;;18.00;98956.00;;;;2082398;28;20321;-52
2024/01/01 03:10:56;;;;;;;5.67;4.23;;;;;18.00;98949.00;;;;2082867;28;20240;-52
2024/01/01 03:11:56;;;;;;;8.67;3.60;;;;;18.00;98946.00;;;;2078637;28;20214;-52
2024/01/01 03:12:57;;;;;;;5.13;4.00;;;;;18.00;98949.00;;;;2083635;28;20246;-52
2024/01/01 03:13:57;;;;;;;4.63;3.97;;;;;17.90;98947.00;;;;2080803;28;20224;-52
2024/01/01 03:14:58;;;;;;;7.33;4.10;;;;;18.00;98952.00;;;;2082601;28;20207;-52
2024/01/01 03:15:58;;;;;;;5.43;3.90;;;;;18.00;98948.00;;;;2085700;28;20384;-52
2024/01/01 03:16:59;;;;;;;5.07;3.80;;;;;18.00;98940.00;;;;2076048;28;20510;-52
2024/01/01 03:17:59;;;;;;;5.50;4.07;;;;;18.00;98942.00;;;;2088438;28;20228;-52
2024/01/01 03:18:59;;;;;;;5.10;3.57;;;;;17.40;98951.00;;;;2087554;28;20215;-52
2024/01/01 03:20:00;;;;;;;4.87;3.80;;;;;18.00;98950.00;;;;2084807;28;20363;-52
2024/01/01 03:21:00;;;;;;;5.30;3.60;;;;;18.00;98945.00;;;;2083593;28;20302;-52
2024/01/01 03:22:01;;;;;;;5.43;3.80;;;;;18.00;98949.00;;;;2074179;28;20626;-57
2024/01/01 03:23:01;;;;;;;4.70;3.70;;;;;18.00;98939.00;;;;2088462;28;20222;-52
2024/01/01 03:24:02;;;;;;;4.57;3.30;;;;;17.90;98958.00;;;;2089255;28;20447;-52
2024/01/01 03:25:03;;;;;;;4.60;3.70;;;;;18.00;98944.00;;;;2084583;28;20214;-52
2024/01/01 03:26:04;;;;;;;5.57;3.20;;;;;17.90;98951.00;;;;2085508;28;20691;-52
2024/01/01 03:27:05;;;;;;;5.03;3.60;;;;;17.90;98938.00;;;;2071904;28;20236;-52
2024/01/01 03:28:06;;;;;;;4.60;3.30;;;;;17.90;98947.00;;;;2084921;28;20228;-52
2024/01/01 03:29:07;;;;;;;5.40;3.60;;;;;17.90;98943.00;;;;2083534;28;20215;-52
2024/01/01 03:30:08;;;;;;;5.60;4.18;;;;;17.90;98948.00;;;;2085706;28;20216;-52
2024/01/01 03:31:09;;;;;;;5.20;3.80;;;;;18.00;98953.00;;;;2084362;28;20231;-52
2024/01/01 03:32:09;;;;;;;5.77;4.03;;;;;17.90;98947.00;;;;2080595;28;20588;-52
2024/01/01 03:33:09;;;;;;;5.47;3.63;;;;;17.90;98945.00;;;;2093093;28;20239;-52
2024/01/01 03:34:10;;;;;;;5.93;3.93;;;;;18.00;98947.00;;;;2087383;28;20219;-52
2024/01/01 03:35:10;;;;;;;4.97;3.40;;;;;18.00;98948.00;;;;2085299;28;20215;-52
2024/01/01 03:36:10;;;;;;;5.07;3.70;;;;;17.90;98945.00;;;;2083305;28;20217;-52
2024/01/01 03:37:11;;;;;;;5.40;3.00;;;;;17.90;98947.00;;;;2072081;28;20243;-52
2024/01/01 03:38:11;;;;;;;6.17;3.50;;;;;18.00;98973.00;;;;2082148;28;20223;-52
2024/01/01 03:39:11;;;;;;;5.50;3.13;;;;;17.90;98945.00;;;;2084913;28;20950;-52
2024/01/01 03:40:12;;;;;;;5.00;3.37;;;;;17.90;98945.00;;;;2085464;28;21011;-52
2024/01/01 03:41:13;;;;;;;4.80;3.30;;;;;17.90;98937.00;;;;2083465;28;20214;-52
2024/01/01 03:42:14;;;;;;;5.40;3.67;;;;;18.00;98950.00;;;;2073936;28;20909;-52
2024/01/01 03:43:14;;;;;;;4.90;3.60;;;;;17.90;98944.00;;;;2074788;28;20228;-52
2024/01/01 03:44:15;;;;;;;6.03;3.13;;;;;17.90;98939.00;;;;2085225;28;20214;-52
2024/01/01 03:45:15;;;;;;;3.85;3.10;;;;;18.00;98940.00;;;;2091085;28;20215;-52
2024/01/01 03:46:16;;;;;;;5.87;3.60;;;;;18.00;98940.00;;;;2084476;28;20334;-52
2024/01/01 03:47:16;;;;;;;4.20;3.20;;;;;18.00;98939.00;;;;2075959;28;20226;-52
2024/01/01 03:48:16;;;;;;;4.67;3.40;;;;;17.90;98945.00;;;;2076671;28;20247;-51
2024/01/01 03:49:17;;;;;;;4.67;3.20;;;;;17.90;98940.00;;;;2083709;28;20216;-51
2024/01/01 03:50:19;;;;;;;5.00;3.67;;;;;17.90;98939.00;;;;2084441;28;20221;-52
2024/01/01 03:51:19;;;;;;;4.07;3.13;;;;;17.90;98937.00;;;;2084263;28;20251;-52
2024/01/01 03:52:20;;;;;;;5.37;3.50;;;;;17.90;98928.00;;;;2073209;28;20235;-52
2024/01/01 03:53:20;;;;;;;4.73;2.80;;;;;17.90;98935.00;;;;2091833;28;20906;-52
2024/01/01 03:54:20;;;;;;;4.40;3.20;;;;;17.90;98932.00;;;;2086702;28;20658;-52
2024/01/01 03:55:21;;;;;;;4.20;3.10;;;;;17.90;98969.00;;;;2084517;28;21007;-52
2024/01/01 03:56:21;;;;;;;3.70;3.10;;;;;17.90;98932.00;;;;2085612;28;20559;-52
2024/01/01 03:57:21;;;;;;;3.63;2.53;;;;;17.90;98934.00;;;;2074792;28;20233;-52
2024/01/01 03:58:22;;;;;;;4.43;3.23;;;;;17.90;98929.00;;;;2084155;28;20222;-51
2024/01/01 03:59:22;;;;;;;4.80;3.40;;;;;17.90;98928.00;;;;2084952;28;20221;-51
2024/01/01 04:00:23;;;;;;;5.20;3.30;;;;;17.90;98933.00;;;;2092322;28;20287;-52
2024/01/01 04:01:24;;;;;;;4.37;2.97;;;;;17.90;98920.00;;;;2085333;28;20280;-52
2024/01/01 04:02:24;;;;;;;5.50;2.85;;;;;17.90;98934.00;;;;2075294;28;20233;-52
2024/01/01 04:03:25;;;;;;;3.67;2.53;;;;;17.90;98934.00;;;;2091636;28;20245;-52
2024/01/01 04:04:25;;;;;;;3.87;2.87;;;;;17.00;98923.00;;;;2085430;28;20251;-52
2024/01/01 04:05:25;;;;;;;4.50;2.77;;;;;17.90;98934.00;;;;2085479;28;20218;-52
2024/01/01 04:06:26;;;;;;;4.60;3.07;;;;;17.90;98932.00;;;;2083610;28;20230;-52
2024/01/01 04:07:26;;;;;;;4.73;3.03;;;;;17.90;98933.00;;;;2075461;28;20578;-51
2024/01/01 04:08:26;;;;;;;5.30;3.30;;;;;17.90;98936.00;;;;2092700;28;20584;-52
2024/01/01 04:09:27;;;;;;;5.07;3.20;;;;;17.90;98937.00;;;;2085309;28;20380;-52
2024/01/01 04:10:27;;;;;;;4.97;3.20;;;;;17.90;98939.00;;;;2085290;28;20210;-52
2024/01/01 04:11:28;;;;;;;4.70;2.80;;;;;17.90;98944.00;;;;2080557;28;20222;-51
2024/01/01 04:12:28;;;;;;;3.67;2.67;;;;;17.90;98936.00;;;;2075113;28;20706;-52
2024/01/01 04:13:28;;;;;;;3.37;2.63;;;;;17.90;98937.00;;;;2084744;28;20210;-51
2024/01/01 04:14:29;;;;;;;3.13;2.27;;;;;17.90;98941.00;;;;2092832;28;20234;-51
2024/01/01 04:15:29;;;;;;;4.03;2.80;;;;;17.90;98941.00;;;;2082267;28;20855;-52
2024/01/01 04:16:30;;;;;;;3.90;2.60;;;;;17.90;98993.00;;;;2085756;28;20611;-52
2024/01/01 04:17:31;;;;;;;4.50;2.97;;;;;17.90;98927.00;;;;2075523;28;20682;-52
2024/01/01 04:18:31;;;;;;;3.85;3.10;;;;;17.90;98934.00;;;;2088267;28;20230;-52
2024/01/01 04:19:32;;;;;;;3.00;2.30;;;;;17.90;98935.00;;;;2081484;28;20715;-51
2024/01/01 04:20:32;;;;;;;3.67;2.70;;;;;17.90;98958.00;;;;2083490;28;20708;-51
2024/01/01 04:21:32;;;;;;;4.47;2.67;;;;;17.90;98946.00;;;;2084913;28;20722;-52
2024/01/01 04:22:33;;;;;;;4.10;2.63;;;;;17.90;98939.00;;;;2075477;28;20760;-52
2024/01/01 04:23:34;;;;;;;4.40;3.07;;;;;17.90;98934.00;;;;2082722;28;20223;-52
2024/01/01 04:24:34;;;;;;;4.07;2.47;;;;;17.90;98934.00;;;;2085449;28;20664;-52
2024/01/01 04:25:35;;;;;;;4.67;2.97;;;;;17.90;98928.00;;;;2084514;28;20254;-52
2024/01/01 04:26:38;;;;;;;3.30;2.40;;;;;17.90;98932.00;;;;2085082;28;20218;-52
2024/01/01 04:27:39;;;;;;;3.20;2.25;;;;;17.90;98930.00;;;;2075264;28;20745;-52
2024/01/01 04:28:39;;;;;;;3.97;2.73;;;;;17.90;98934.00;;;;2084575;28;20215;-52
2024/01/01 04:29:40;;;;;;;3.10;2.17;;;;;17.90;98924.00;;;;2084703;28;20219;-52
2024/01/01 04:30:40;;;;;;;3.90;2.67;;;;;17.90;98939.00;;;;2083233;28;20845;-52
2024/01/01 04:31:41;;;;;;;3.43;2.40;;;;;17.90;98933.00;;;;2076061;28;20215;-52
2024/01/01 04:32:41;;;;;;;3.10;2.53;;;;;17.90;98927.00;;;;2074510;28;20476;-52
2024/01/01 04:33:42;;;;;;;3.20;2.40;;;;;17.90;98938.00;;;;2083648;28;20574;-52
2024/01/01 04:34:42;;;;;;;4.50;2.50;;;;;17.90;98924.00;;;;2084070;28;20227;-52
2024/01/01 04:35:43;;;;;;;3.87;1.93;;;;;17.90;98929.00;;;;2083967;28;20233;-52
2024/01/01 04:36:44;;;;;;;4.50;2.35;;;;;17.90;98935.00;;;;2075680;28;20221;-52
2024/01/01 04:37:44;;;;;;;3.80;2.47;;;;;17.90;98925.00;;;;2083642;28;20286;-53
2024/01/01 04:38:44;;;;;;;3.70;2.50;;;;;17.90;98930.00;;;;2083413;28;20207;-52
2024/01/01 04:39:45;;;;;;;3.93;2.40;;;;;17.90;98930.00;;;;2084084;28;20222;-53
2024/01/01 04:40:46;;;;;;;3.10;2.10;;;;;17.90;98927.00;;;;2085402;28;20202;-52
2024/01/01 04:41:46;;;;;;;3.60;2.50;;;;;17.90;98918.00;;;;2081961;28;20615;-52
2024/01/01 04:42:49;;;;;;;2.63;2.27;;;;;17.90;98931.00;;;;2083877;28;20230;-52
2024/01/01 04:43:50;;;;;;;4.38;2.85;;;;;17.90;98924.00;;;;2089454;28;20211;-52
2024/01/01 04:44:52;;;;;;;3.43;2.00;;;;;17.90;98926.00;;;;2083634;28;20238;-52
2024/01/01 04:45:52;;;;;;;5.85;2.75;;;;;17.90;98936.00;;;;2085274;28;20214;-52
2024/01/01 04:46:53;;;;;;;4.40;2.60;;;;;17.90;98935.00;;;;2074378;28;20218;-52
2024/01/01 04:47:53;;;;;;;4.57;2.63;;;;;17.90;98932.00;;;;2085280;28;20208;-52
2024/01/01 04:48:53;;;;;;;3.10;2.07;;;;;17.90;98942.00;;;;2085269;28;20207;-52
2024/01/01 04:49:54;;;;;;;4.27;2.20;;;;;17.90;98941.00;;;;2084324;28;20214;-52
2024/01/01 04:50:54;;;;;;;3.20;2.20;;;;;17.90;98929.00;;;;2085801;28;20239;-52
2024/01/01 04:51:54;;;;;;;3.33;2.70;;;;;17.90;98931.00;;;;2075765;28;20222;-52
2024/01/01 04:52:55;;;;;;;4.90;2.47;;;;;17.90;98930.00;;;;2086755;28;20211;-52
2024/01/01 04:53:55;;;;;;;3.80;2.20;;;;;17.90;98936.00;;;;2085813;28;20644;-52
2024/01/01 04:54:56;;;;;;;3.73;2.30;;;;;17.90;98926.00;;;;2084901;28;20226;-52
2024/01/01 04:55:56;;;;;;;4.67;2.50;;;;;17.90;98935.00;;;;2086815;28;20223;-52
2024/01/01 04:56:56;;;;;;;2.90;1.90;;;;;17.90;98928.00;;;;2072983;28;20209;-52
2024/01/01 04:57:57;;;;;;;4.60;1.90;;;;;17.90;98929.00;;;;2086988;28;20199;-52
2024/01/01 04:58:57;;;;;;;3.20;2.43;;;;;17.90;98924.00;;;;2085400;28;20214;-52
2024/01/01 04:59:57;;;;;;;3.20;2.10;;;;;17.90;98929.00;;;;2086315;28;20597;-52
2024/01/01 05:00:57;;;;;;;3.73;2.17;;;;;17.90;98942.00;;;;2084048;28;20841;-52
2024/01/01 05:01:58;;;;;;;5.70;2.20;;;;;17.90;98930.00;;;;2077349;28;20684;-52
2024/01/01 05:02:58;;;;;;;4.80;2.37;;;;;17.90;98958.00;;;;2094414;28;20702;-52